Flight Track Log - Related Links

Times and Time Zones

All times are in EDT time to prevent confusion due to time zone crossing. See the GJS3618 flight status page for this flight to view local times or setup timezone preferences in your user account.


Time Position Orientation Groundspeed Altitude Reporting Facility
EDT Latitude Longitude Course Direction KTS MPH feet Rate Location/Type
Tue 09:58:49 PM 42.0167 -87.9833 270° West 181 208 2,600  Level Chicago TRACON
Tue 09:59:43 PM 42.0333 -88.0500 289° West 222 255 4,300 1,611 Climbing Chicago TRACON
Tue 10:00:37 PM 42.0333 -88.1500 270° West 274 315 5,500 1,832 Climbing Chicago TRACON
Tue 10:01:54 PM 42.0517 -88.2528 284° West 274 315 8,300 2,174 Climbing Chicago Center
Tue 10:02:55 PM 42.0350 -88.3806 260° West 292 336 10,500 1,918 Climbing Chicago Center
Tue 10:03:56 PM 42.0344 -88.5042 270° West 332 382 12,200 1,854 Climbing Chicago Center
Tue 10:04:00 PM 41.9667 -88.7924 270° West  Level FlightAware Approximate
Tue 10:04:58 PM 42.0364 -88.6267 271° West 333 383 14,300  Level Chicago Center
Tue 10:05:59 PM 42.0431 -88.7569 274° West 349 402 16,200 1,721 Climbing Chicago Center
Tue 10:07:00 PM 42.0517 -88.8914 275° West 362 417 17,800 1,268 Climbing Chicago Center
Tue 10:08:02 PM 42.0589 -89.0292 274° West 370 426 18,800 1,024 Climbing Chicago Center
Tue 10:09:03 PM 42.0619 -89.1797 272° West 402 463 19,900 1,426 Climbing Chicago Center
Tue 10:10:04 PM 42.0608 -89.3647 270° West 415 478 21,700 1,561 Climbing Chicago Center
Tue 10:11:06 PM 42.0517 -89.5186 265° West 416 479 23,100 1,171 Climbing Chicago Center
Tue 10:12:07 PM 42.0414 -89.6758 265° West 425 489 24,100 934 Climbing Chicago Center
Tue 10:13:08 PM 42.0392 -89.8381 269° West 436 502 25,000 1,033 Climbing Chicago Center
Tue 10:14:09 PM 42.0369 -90.0236 269° West 449 517 26,200 1,073 Climbing Chicago Center
Tue 10:15:11 PM 42.0331 -90.1914 268° West 452 520 27,200 976 Climbing Chicago Center
Tue 10:16:12 PM 42.0328 -90.3603 270° West 455 524 28,200 984 Climbing Chicago Center
Tue 10:17:13 PM 42.0300 -90.5319 269° West 461 531 29,200 984 Climbing Chicago Center
Tue 10:18:14 PM 42.0681 -90.6903 288° West 457 526 30,200 984 Climbing Chicago Center
Tue 10:19:15 PM 42.1272 -90.8325 299° West 441 507 31,200 927 Climbing Chicago Center
Tue 10:20:17 PM 42.1853 -90.9775 298° West 443 510 32,100 878 Climbing Chicago Center
Tue 10:21:18 PM 42.2436 -91.1222 299° West 442 509 33,000 984 Climbing Chicago Center
Tue 10:22:19 PM 42.3128 -91.2944 299° West 439 505 34,100 984 Climbing Chicago Center
Tue 10:23:20 PM 42.3689 -91.4372 298° West 434 499 35,000 738 Climbing Chicago Center
Tue 10:24:21 PM 42.4264 -91.5808 299° West 434 499 35,600 488 Climbing Chicago Center
Tue 10:25:23 PM 42.4831 -91.7258 298° West 435 501 36,000 195 Climbing Chicago Center
Tue 10:26:24 PM 42.5414 -91.8744 298° West 444 511 36,000  Level Chicago Center
Tue 10:27:25 PM 42.5992 -92.0244 298° West 446 513 36,000  Level Chicago Center
Tue 10:28:26 PM 42.6581 -92.1758 298° West 452 520 36,000  Level Chicago Center
Tue 10:29:27 PM 42.7161 -92.3281 297° West 456 525 36,000  Level Chicago Center
Tue 10:30:29 PM 42.7742 -92.4786 298° West 453 521 36,000  Level Chicago Center
Tue 10:31:30 PM 42.8317 -92.6292 298° West 452 520 36,000  Level Chicago Center
Tue 10:32:31 PM 42.9003 -92.8125 297° West 454 522 36,000  Level Chicago Center
Tue 10:33:08 PM 42.9350 -92.9056 297° West 456 525 36,000  Level Minneapolis Center
Tue 10:34:09 PM 42.9917 -93.0575 297° West 454 522 36,000  Level Minneapolis Center
Tue 10:35:22 PM 43.0481 -93.2083 297° West 450 518 36,000  Level Minneapolis Center
Tue 10:36:24 PM 43.0956 -93.4006 289° West 450 518 36,000  Level Minneapolis Center
Tue 10:37:25 PM 43.1039 -93.5731 274° West 457 526 36,000  Level Minneapolis Center
Tue 10:38:26 PM 43.1106 -93.7114 274° West 460 529 36,000  Level Minneapolis Center
Tue 10:39:28 PM 43.1206 -93.9522 273° West 458 527 36,000  Level Minneapolis Center
Tue 10:40:29 PM 43.1261 -94.1250 273° West 458 527 36,000  Level Minneapolis Center
Tue 10:41:30 PM 43.1331 -94.2903 273° West 458 527 36,000  Level Minneapolis Center
Tue 10:42:31 PM 43.1383 -94.4622 272° West 454 522 36,000  Level Minneapolis Center
Tue 10:43:33 PM 43.1450 -94.6342 273° West 453 521 36,000  Level Minneapolis Center
Tue 10:44:34 PM 43.1508 -94.8058 273° West 452 520 36,000  Level Minneapolis Center
Tue 10:45:47 PM 43.1578 -95.0506 272° West 458 527 36,000  Level Minneapolis Center
Tue 10:46:49 PM 43.1697 -95.2228 275° West 455 524 36,000  Level Minneapolis Center
Tue 10:47:50 PM 43.2183 -95.3775 293° West 446 513 36,000  Level Minneapolis Center
Tue 10:48:51 PM 43.2669 -95.5331 293° West 444 511 36,000  Level Minneapolis Center
Tue 10:49:52 PM 43.3156 -95.6864 294° West 440 506 36,000  Level Minneapolis Center
Tue 10:50:53 PM 43.3628 -95.8392 293° West 436 502 36,000  Level Minneapolis Center
Tue 10:51:54 PM 43.4092 -95.9892 293° West 429 494 36,000  Level Minneapolis Center
Tue 10:52:55 PM 43.4550 -96.1392 293° West 425 489 36,000  Level Minneapolis Center
Tue 10:53:57 PM 43.5006 -96.2889 293° West 423 487 36,000  Level Minneapolis Center
Tue 10:54:58 PM 43.5456 -96.4375 293° West 420 483 36,000  Level Minneapolis Center
Tue 10:55:59 PM 43.5906 -96.5861 293° West 419 482 36,000  Level Minneapolis Center
Tue 10:57:00 PM 43.6356 -96.7328 293° West 415 478 36,000  Level Minneapolis Center
Tue 10:58:01 PM 43.6625 -96.8869 284° West 421 484 36,000  Level Minneapolis Center
Tue 10:59:02 PM 43.7117 -97.0636 291° West 411 473 36,000  Level Minneapolis Center
Tue 11:00:03 PM 43.7517 -97.2108 291° West 409 471 36,000  Level Minneapolis Center
Tue 11:01:04 PM 43.7931 -97.3578 291° West 409 471 36,000  Level Minneapolis Center
Tue 11:02:05 PM 43.8250 -97.4747 291° West 407 468 36,000  Level Minneapolis Center
Tue 11:03:06 PM 43.8722 -97.6517 290° West 408 470 36,000  Level Minneapolis Center
Tue 11:04:08 PM 43.9117 -97.7994 290° West 409 471 36,000  Level Minneapolis Center
Tue 11:05:21 PM 43.9592 -97.9747 291° West 406 467 36,000  Level Minneapolis Center
Tue 11:06:22 PM 43.9986 -98.1239 290° West 410 472 36,000  Level Minneapolis Center
Tue 11:07:23 PM 44.0328 -98.2764 287° West 413 475 36,000  Level Minneapolis Center
Tue 11:08:36 PM 44.0736 -98.4231 291° West 412 474 36,000  Level Minneapolis Center
Tue 11:09:50 PM 44.1728 -98.5558 316° Northwest 412 474 36,000  Level Minneapolis Center
Tue 11:10:51 PM 44.2944 -98.6761 325° Northwest 410 472 36,000  Level Minneapolis Center
Tue 11:11:52 PM 44.3850 -98.7711 323° Northwest 408 470 36,000  Level Minneapolis Center
Tue 11:12:53 PM 44.4778 -98.8628 325° Northwest 408 470 36,000 49 Level Minneapolis Center
Tue 11:13:54 PM 44.5533 -98.9311 327° Northwest 406 467 36,100 390 Climbing Minneapolis Center
Tue 11:14:56 PM 44.6581 -99.0492 321° Northwest 405 466 36,800 537 Climbing Minneapolis Center
Tue 11:15:57 PM 44.7119 -99.1833 300° West 397 457 37,200 443 Climbing Minneapolis Center
Tue 11:16:58 PM 44.7656 -99.3144 300° West 389 448 37,700 390 Climbing Minneapolis Center
Tue 11:18:00 PM 44.8564 -99.4508 313° West 397 457 38,000 146 Climbing Minneapolis Center
Tue 11:19:01 PM 44.8878 -99.5986 287° West 396 456 38,000  Level Minneapolis Center
Tue 11:20:02 PM 44.9092 -99.7519 281° West 397 457 38,000  Level Minneapolis Center
Tue 11:21:03 PM 44.9294 -99.9078 280° West 396 456 38,000  Level Minneapolis Center
Tue 11:22:04 PM 44.9514 -100.0683 281° West 407 468 38,000  Level Minneapolis Center
Tue 11:23:05 PM 44.9756 -100.2197 283° West 395 455 38,000  Level Minneapolis Center
Tue 11:24:06 PM 44.9972 -100.3661 282° West 384 442 38,000  Level Minneapolis Center
Tue 11:25:07 PM 45.0172 -100.5094 281° West 377 434 38,000  Level Minneapolis Center
Tue 11:26:08 PM 45.0361 -100.6525 281° West 373 429 38,000  Level Minneapolis Center
Tue 11:27:09 PM 45.0547 -100.7967 280° West 372 428 38,000  Level Minneapolis Center
Tue 11:28:10 PM 45.0742 -100.9406 281° West 372 428 38,000  Level Minneapolis Center
Tue 11:29:11 PM 45.0933 -101.0872 281° West 377 434 38,000  Level Minneapolis Center
Tue 11:30:12 PM 45.1128 -101.2322 281° West 376 433 38,000  Level Minneapolis Center
Tue 11:31:13 PM 45.1314 -101.3814 280° West 381 438 38,000  Level Minneapolis Center
Tue 11:32:14 PM 45.1508 -101.5281 281° West 381 438 38,000  Level Minneapolis Center
Tue 11:33:15 PM 45.1692 -101.6772 280° West 383 441 38,000  Level Minneapolis Center
Tue 11:34:16 PM 45.1872 -101.8281 280° West 386 444 38,000  Level Minneapolis Center
Tue 11:35:17 PM 45.2064 -101.9775 280° West 387 445 38,000  Level Minneapolis Center
Tue 11:36:17 PM 45.2278 -102.1594 280° West 389 448 38,000  Level Minneapolis Center
Tue 11:37:18 PM 45.2467 -102.3114 280° West 390 449 38,000  Level Minneapolis Center
Tue 11:38:19 PM 45.2636 -102.4631 279° West 390 449 38,000  Level Minneapolis Center
Tue 11:39:20 PM 45.2811 -102.6147 279° West 390 449 38,000  Level Minneapolis Center
Tue 11:40:21 PM 45.2994 -102.7678 280° West 393 452 38,000  Level Minneapolis Center
Tue 11:41:22 PM 45.3158 -102.9217 279° West 394 453 38,000  Level Minneapolis Center
Tue 11:42:23 PM 45.3331 -103.0764 279° West 396 456 38,000  Level Minneapolis Center
Tue 11:44:51 PM 45.3744 -103.4592 279° West 401 461 38,000  Level Salt Lake Center
Tue 11:45:52 PM 45.3914 -103.6125 279° West 395 455 38,000  Level Salt Lake Center
Tue 11:46:54 PM 45.4072 -103.7664 278° West 394 453 38,000  Level Salt Lake Center
Tue 11:47:55 PM 45.4236 -103.9211 279° West 396 456 38,000  Level Salt Lake Center
Tue 11:48:56 PM 45.4392 -104.0767 278° West 397 457 38,000  Level Salt Lake Center
Tue 11:49:57 PM 45.4536 -104.2325 278° West 398 458 38,000  Level Salt Lake Center
Tue 11:50:58 PM 45.4697 -104.3886 278° West 399 459 38,000  Level Salt Lake Center
Tue 11:51:59 PM 45.4878 -104.5672 278° West 399 459 38,000  Level Salt Lake Center
Tue 11:53:00 PM 45.5025 -104.7217 278° West 396 456 38,000  Level Salt Lake Center
Tue 11:54:01 PM 45.5172 -104.8767 278° West 396 456 38,000  Level Salt Lake Center
Tue 11:55:02 PM 45.5333 -105.0342 278° West 400 460 38,000  Level Salt Lake Center
Tue 11:56:04 PM 45.5478 -105.1906 278° West 399 459 38,000  Level Salt Lake Center
Tue 11:57:05 PM 45.5608 -105.3467 277° West 398 458 38,000  Level Salt Lake Center
Tue 11:58:06 PM 45.5761 -105.5042 278° West 401 461 38,000  Level Salt Lake Center
Tue 11:59:07 PM 45.5897 -105.6619 277° West 403 464 38,000  Level Salt Lake Center
Wed 12:00:08 AM 45.6033 -105.8167 277° West 397 457 38,000  Level Salt Lake Center
Wed 12:01:09 AM 45.6194 -106.0056 277° West 399 459 38,000  Level Salt Lake Center
Wed 12:02:10 AM 45.6319 -106.1628 277° West 399 459 38,000  Level Salt Lake Center
Wed 12:03:11 AM 45.6453 -106.3197 277° West 400 460 38,000  Level Salt Lake Center
Wed 12:04:12 AM 45.6558 -106.4747 276° West 396 456 38,000  Level Salt Lake Center
Wed 12:05:13 AM 45.6664 -106.6267 276° West 388 447 38,000  Level Salt Lake Center
Wed 12:06:14 AM 45.6797 -106.7847 277° West 395 455 38,000  Level Salt Lake Center
Wed 12:07:15 AM 45.6936 -106.9414 277° West 399 459 38,000 -443 Level Salt Lake Center
Wed 12:08:16 AM 45.7047 -107.1008 276° West 402 463 37,100 -984 Descending Salt Lake Center
Wed 12:09:17 AM 45.7175 -107.2650 276° West 413 475 36,000 -984 Descending Salt Lake Center
Wed 12:10:18 AM 45.7294 -107.4208 276° West 397 457 35,100 -1,033 Descending Salt Lake Center
Wed 12:11:19 AM 45.7425 -107.6072 276° West 394 453 33,900 -1,082 Descending Salt Lake Center
Wed 12:12:20 AM 45.7531 -107.7644 276° West 397 457 32,900 -976 Descending Salt Lake Center
Wed 12:13:22 AM 45.7639 -107.9200 276° West 397 457 31,900 -976 Descending Salt Lake Center
Wed 12:14:23 AM 45.7739 -108.0806 275° West 409 471 30,900 -984 Descending Salt Lake Center
Wed 12:15:24 AM 45.7850 -108.2547 275° West 441 507 29,900 -984 Descending Salt Lake Center
Wed 12:16:25 AM 45.7961 -108.4256 275° West 437 503 28,900 -984 Descending Salt Lake Center
Wed 12:17:26 AM 45.8081 -108.5917 276° West 428 493 27,900 -1,082 Descending Salt Lake Center
Wed 12:18:27 AM 45.8081 -108.7567 270° West 415 478 26,700 -1,230 Descending Salt Lake Center
Wed 12:19:28 AM 45.8075 -108.9250 270° West 421 484 25,400 -1,426 Descending Salt Lake Center
Wed 12:20:29 AM 45.8069 -109.1336 270° West 436 502 23,800 -1,426 Descending Salt Lake Center
Wed 12:21:30 AM 45.8058 -109.3017 270° West 425 489 22,500 -1,230 Descending Salt Lake Center
Wed 12:22:31 AM 45.8050 -109.4597 270° West 402 463 21,300 -1,328 Descending Salt Lake Center
Wed 12:23:32 AM 45.8036 -109.6228 269° West 390 449 19,800 -1,426 Descending Salt Lake Center
Wed 12:24:33 AM 45.8019 -109.7739 269° West 387 445 18,400 -1,377 Descending Salt Lake Center
Wed 12:25:34 AM 45.8000 -109.9236 269° West 392 451 17,000 -1,328 Descending Salt Lake Center
Wed 12:26:35 AM 45.7989 -110.0769 269° West 389 448 15,700 -1,574 Descending Salt Lake Center
Wed 12:27:36 AM 45.7958 -110.2161 268° West 363 418 13,800 -1,574 Descending Salt Lake Center
Wed 12:28:37 AM 45.7936 -110.3478 269° West 341 392 12,500 -885 Descending Salt Lake Center
Wed 12:29:38 AM 45.7917 -110.4819 269° West 337 388 12,000 -246 Descending Salt Lake Center
Wed 12:30:39 AM 45.7672 -110.6064 254° West 332 382 12,000  Level Salt Lake Center
Wed 12:31:40 AM 45.7447 -110.7342 256° West 301 346 12,000  Level Salt Lake Center
Wed 12:32:42 AM 45.7128 -110.8231 243° Southwest 271 312 12,000  Level Salt Lake Center
Wed 12:33:42 AM 45.6758 -110.9078 238° Southwest 255 293 12,000 -992 Level Salt Lake Center
Wed 12:34:43 AM 45.6592 -110.9836 253° West 223 257 10,000 -2,410 Descending Salt Lake Center
Wed 12:35:44 AM 45.6986 -111.0497 311° West 220 253 7,100 -2,311 Descending Salt Lake Center
Wed 12:36:45 AM 45.7383 -111.0981 320° Northwest 199 229 5,300 -1,279 Descending Salt Lake Center
Wed 12:37:46 AM 45.7700 -111.1425 316° Northwest 174 200 4,500 -787 Descending Salt Lake Center

Login

Don't have an account? Register now (free) for customized features, flight alerts, and more!